Terminal Aerodrome Forecast
Issued by NWS

Home | Current Version | Previous Version | Graphics & Text | Print | Product List | Glossary On
Versions: 1 2 3 4 5 6 7 8 9 10 11 12 13 14 15 16 17 18
000
FTUS43 KMPX 181500 AAA
TAFRWF
TAF AMD
KRWF 181521Z 1815/1912 27010KT 6SM -SN BKN040
     FM182100 21010KT P6SM BKN040
      TEMPO 1905/1907 4SM -SN OVC018
     FM190700 30015G30KT 6SM -SN BLSN OVC020=

USA.gov is the U.S. government's official web portal to all federal, state and local government web resources and services.